createdAt,value
2022-08-12T00:02:17.957Z,101550.54
2022-08-12T00:05:06.718Z,101551.70
2022-08-12T00:07:55.566Z,101552.48
2022-08-12T00:10:42.580Z,101559.53
2022-08-12T00:13:29.519Z,101558.86
2022-08-12T00:16:18.137Z,101563.95
2022-08-12T00:19:04.445Z,101566.56
2022-08-12T00:21:51.548Z,101563.92
2022-08-12T00:24:40.160Z,101566.82
2022-08-12T00:27:43.363Z,101560.02
2022-08-12T00:30:31.330Z,101560.20
2022-08-12T00:33:17.790Z,101558.41
2022-08-12T00:36:10.110Z,101556.02
2022-08-12T00:39:05.281Z,101562.08
2022-08-12T00:41:53.676Z,101558.31
2022-08-12T00:44:23.795Z,101557.61
2022-08-12T00:46:59.472Z,101556.69
2022-08-12T00:49:29.339Z,101559.71
2022-08-12T00:52:10.049Z,101559.01
2022-08-12T00:54:51.453Z,101559.65
2022-08-12T00:57:37.386Z,101562.05
2022-08-12T01:00:12.381Z,101557.02
2022-08-12T01:02:47.103Z,101562.93
2022-08-12T01:05:37.830Z,101561.66
2022-08-12T01:08:27.896Z,101561.36
2022-08-12T01:11:15.930Z,101560.54
2022-08-12T01:13:47.687Z,101561.91
2022-08-12T01:16:18.183Z,101562.97
2022-08-12T01:18:46.044Z,101561.98
2022-08-12T01:21:33.844Z,101557.71
2022-08-12T01:24:36.792Z,101558.42
2022-08-12T01:27:07.970Z,101555.44
2022-08-12T01:29:42.359Z,101548.36
2022-08-12T01:32:14.498Z,101550.96
2022-08-12T01:35:13.442Z,101550.18
2022-08-12T01:37:57.924Z,101550.17
2022-08-12T01:40:38.171Z,101551.90
2022-08-12T01:43:09.681Z,101551.77
2022-08-12T01:45:52.476Z,101550.00
2022-08-12T01:48:41.990Z,101553.40
2022-08-12T01:52:15.667Z,101550.73
2022-08-12T01:54:18.487Z,101554.41
2022-08-12T01:57:07.407Z,101553.02
2022-08-12T01:59:59.287Z,101553.88
2022-08-12T02:02:32.415Z,101554.90
2022-08-12T02:05:43.854Z,101555.40
2022-08-12T02:08:48.454Z,101552.88
2022-08-12T02:11:45.557Z,101560.13
2022-08-12T02:14:25.258Z,101561.98
2022-08-12T02:17:02.265Z,101564.68
2022-08-12T02:19:29.898Z,101562.93
2022-08-12T02:22:22.234Z,101558.74
2022-08-12T02:24:54.262Z,101560.17
2022-08-12T02:27:24.540Z,101563.39
2022-08-12T02:29:52.317Z,101564.87
2022-08-12T02:32:21.341Z,101565.15
2022-08-12T02:34:49.902Z,101561.46
2022-08-12T02:37:18.479Z,101565.34
2022-08-12T02:39:50.113Z,101575.30
2022-08-12T02:42:22.601Z,101575.40
2022-08-12T02:44:53.255Z,101571.06
2022-08-12T02:47:59.161Z,101570.67
2022-08-12T02:50:11.043Z,101577.02
2022-08-12T02:52:40.326Z,101573.29
2022-08-12T02:55:34.531Z,101572.72
2022-08-12T02:58:12.039Z,101566.88
2022-08-12T03:00:44.367Z,101564.11
2022-08-12T03:03:14.570Z,101560.90
2022-08-12T03:05:54.527Z,101560.52
2022-08-12T03:08:32.567Z,101559.83
2022-08-12T03:11:14.353Z,101562.69
2022-08-12T03:13:47.042Z,101561.73
2022-08-12T03:16:14.922Z,101554.13
2022-08-12T03:18:45.942Z,101555.39
2022-08-12T03:21:17.092Z,101556.98
2022-08-12T03:23:46.460Z,101551.86
2022-08-12T03:26:14.960Z,101552.45
2022-08-12T03:28:51.932Z,101552.20
2022-08-12T03:31:30.107Z,101553.29
2022-08-12T03:34:10.142Z,101547.44
2022-08-12T03:36:40.842Z,101541.05
2022-08-12T03:39:35.651Z,101538.33
2022-08-12T03:42:17.984Z,101530.43
2022-08-12T03:45:51.906Z,101533.20
2022-08-12T03:48:39.809Z,101539.45
2022-08-12T03:51:26.682Z,101542.56
2022-08-12T03:54:13.713Z,101543.61
2022-08-12T03:57:00.244Z,101546.23
2022-08-12T03:59:46.707Z,101547.41
2022-08-12T04:02:17.597Z,101546.69
2022-08-12T04:04:46.537Z,101546.76
2022-08-12T04:07:16.414Z,101550.21
2022-08-12T04:09:46.226Z,101548.37
2022-08-12T04:12:33.373Z,101548.92
2022-08-12T04:15:02.893Z,101550.79
2022-08-12T04:17:31.914Z,101553.02
2022-08-12T04:20:00.125Z,101552.47
2022-08-12T04:35:50.563Z,101558.54
2022-08-12T04:38:19.982Z,101559.24
2022-08-12T04:40:48.968Z,101557.14
2022-08-12T04:44:01.159Z,101554.77
2022-08-12T04:46:05.465Z,101558.61
2022-08-12T04:48:33.134Z,101560.64
2022-08-12T04:51:02.127Z,101571.52
2022-08-12T04:53:31.053Z,101582.45
2022-08-12T04:55:58.941Z,101582.17
2022-08-12T04:58:30.154Z,101575.20
2022-08-12T05:00:58.324Z,101589.34
2022-08-12T05:03:27.022Z,101589.73
2022-08-12T05:05:58.133Z,101592.86
2022-08-12T05:08:26.547Z,101609.68
2022-08-12T05:10:54.619Z,101607.67
2022-08-12T05:13:27.908Z,101601.77
2022-08-12T05:16:03.971Z,101612.02
2022-08-12T05:18:39.428Z,101611.95
2022-08-12T05:21:09.210Z,101617.97
2022-08-12T05:23:38.526Z,101621.41
2022-08-12T05:26:06.910Z,101625.15
2022-08-12T05:28:35.005Z,101623.20
2022-08-12T05:31:04.626Z,101622.64
2022-08-12T05:33:41.119Z,101618.65
2022-08-12T05:36:16.464Z,101614.92
2022-08-12T05:38:58.351Z,101606.12
2022-08-12T05:41:35.337Z,101597.63
2022-08-12T05:44:06.646Z,101586.51
2022-08-12T05:46:36.775Z,101593.69
2022-08-12T05:49:06.290Z,101596.70
2022-08-12T05:51:39.829Z,101600.86
2022-08-12T05:54:11.512Z,101597.81
2022-08-12T05:56:41.613Z,101589.23
2022-08-12T05:59:12.775Z,101585.52
2022-08-12T06:02:11.882Z,101578.33
2022-08-12T06:04:31.176Z,101577.88
2022-08-12T06:07:01.916Z,101578.02
2022-08-12T06:09:31.060Z,101571.60
2022-08-12T06:12:05.712Z,101568.77
2022-08-12T06:14:37.693Z,101568.49
2022-08-12T06:17:09.154Z,101566.20
2022-08-12T06:20:27.197Z,101561.52
2022-08-12T06:22:26.845Z,101556.36
2022-08-12T06:24:55.169Z,101552.50
2022-08-12T06:27:23.158Z,101545.31
2022-08-12T06:30:08.414Z,101540.80
2022-08-12T06:32:47.732Z,101542.86
2022-08-12T06:35:48.141Z,101538.46
2022-08-12T06:38:25.425Z,101539.33
2022-08-12T06:41:22.498Z,101539.73
2022-08-12T06:44:04.647Z,101537.84
2022-08-12T06:46:33.110Z,101532.56
2022-08-12T06:49:00.937Z,101523.54
2022-08-12T06:51:31.885Z,101516.42
2022-08-12T06:54:00.933Z,101516.16
2022-08-12T06:57:00.209Z,101519.39
2022-08-12T06:59:21.415Z,101521.48
2022-08-12T07:01:51.581Z,101527.35
2022-08-12T07:04:38.030Z,101531.44
2022-08-12T07:07:09.151Z,101539.73
2022-08-12T07:10:04.049Z,101543.85
2022-08-12T07:12:28.171Z,101550.23
2022-08-12T07:14:58.351Z,101555.87
2022-08-12T07:17:36.188Z,101555.66
2022-08-12T07:20:29.818Z,101553.34
2022-08-12T07:23:01.025Z,101555.11
2022-08-12T07:25:37.457Z,101556.77
2022-08-12T07:28:35.601Z,101555.41
2022-08-12T07:31:05.182Z,101551.20
2022-08-12T07:33:33.131Z,101546.00
2022-08-12T07:36:02.415Z,101546.59
2022-08-12T07:38:40.127Z,101545.92
2022-08-12T07:41:14.511Z,101542.71
2022-08-12T07:43:53.855Z,101541.84
2022-08-12T07:46:24.341Z,101542.73
2022-08-12T07:48:58.545Z,101541.48
2022-08-12T07:51:26.472Z,101543.06
2022-08-12T07:54:01.098Z,101546.03
2022-08-12T07:56:31.602Z,101542.08
2022-08-12T07:59:01.282Z,101542.79
2022-08-12T08:01:30.340Z,101545.83
2022-08-12T08:04:19.367Z,101544.56
2022-08-12T08:06:49.382Z,101542.52
2022-08-12T08:09:19.589Z,101539.56
2022-08-12T08:14:18.113Z,101536.77
2022-08-12T08:16:46.442Z,101537.27
2022-08-12T08:19:23.931Z,101542.20
2022-08-12T08:21:55.025Z,101542.08
2022-08-12T08:24:27.034Z,101541.98
2022-08-12T08:26:58.727Z,101538.38
2022-08-12T08:29:27.146Z,101533.55
2022-08-12T08:31:58.328Z,101534.09
2022-08-12T08:37:21.411Z,101528.63
2022-08-12T08:39:51.376Z,101531.77
2022-08-12T08:42:40.457Z,101533.43
2022-08-12T08:45:13.116Z,101529.79
2022-08-12T08:47:45.819Z,101529.58
2022-08-12T08:50:15.346Z,101524.77
2022-08-12T08:52:44.358Z,101528.27
2022-08-12T08:55:14.047Z,101530.44
2022-08-12T08:57:47.706Z,101527.80
2022-08-12T09:00:18.615Z,101526.40
2022-08-12T09:02:59.323Z,101531.04
2022-08-12T09:06:01.404Z,101534.58
2022-08-12T09:08:26.729Z,101529.89
2022-08-12T09:12:07.434Z,101524.36
2022-08-12T09:14:11.838Z,101524.67
2022-08-12T09:16:42.668Z,101521.58
2022-08-12T09:19:27.412Z,101519.13
2022-08-12T09:21:57.358Z,101512.94
2022-08-12T09:24:28.391Z,101515.27
2022-08-12T09:26:58.799Z,101513.51
2022-08-12T09:30:11.537Z,101513.13
2022-08-12T09:32:31.496Z,101509.57
2022-08-12T09:35:07.808Z,101508.77
2022-08-12T09:37:58.471Z,101504.21
2022-08-12T09:40:57.497Z,101503.80
2022-08-12T09:43:35.222Z,101500.38
2022-08-12T09:46:07.049Z,101490.41
2022-08-12T09:48:55.832Z,101490.60
2022-08-12T09:51:38.297Z,101491.04
2022-08-12T09:54:31.728Z,101483.26
2022-08-12T09:58:07.016Z,101478.55
2022-08-12T10:00:15.817Z,101477.25
2022-08-12T10:02:44.234Z,101474.28
2022-08-12T10:05:17.904Z,101474.95
2022-08-12T10:07:48.408Z,101467.48
2022-08-12T10:10:24.527Z,101475.84
2022-08-12T10:13:35.116Z,101471.66
2022-08-12T10:16:05.930Z,101461.17
2022-08-12T10:18:51.933Z,101457.78
2022-08-12T10:21:36.380Z,101461.67
2022-08-12T10:24:08.508Z,101456.75
2022-08-12T10:26:57.385Z,101459.52
2022-08-12T10:30:03.581Z,101459.79
2022-08-12T10:33:02.439Z,101456.73
2022-08-12T10:35:24.810Z,101457.51
2022-08-12T10:38:34.153Z,101454.20
2022-08-12T10:41:12.315Z,101455.42
2022-08-12T10:43:54.943Z,101458.14
2022-08-12T10:46:30.551Z,101453.02
2022-08-12T10:49:05.616Z,101454.65
2022-08-12T10:52:03.752Z,101450.61
2022-08-12T10:54:26.818Z,101437.30
2022-08-12T10:56:57.853Z,101439.34
2022-08-12T10:59:58.084Z,101441.14
2022-08-12T11:04:25.349Z,101448.61
2022-08-12T11:07:09.741Z,101447.98
2022-08-12T11:08:34.332Z,101444.64
2022-08-12T11:10:39.001Z,101434.61
2022-08-12T11:13:09.506Z,101433.12
2022-08-12T11:16:03.692Z,101437.39
2022-08-12T11:18:25.205Z,101431.87
2022-08-12T11:20:54.574Z,101431.80
2022-08-12T11:23:37.148Z,101430.11
2022-08-12T11:26:07.397Z,101424.14
2022-08-12T11:28:37.881Z,101415.54
2022-08-12T11:31:12.126Z,101412.56
2022-08-12T11:34:05.857Z,101410.96
2022-08-12T11:36:31.536Z,101409.31
2022-08-12T11:39:01.398Z,101418.23
2022-08-12T11:41:34.687Z,101407.34
2022-08-12T11:44:35.063Z,101412.89
2022-08-12T11:46:54.603Z,101407.48
2022-08-12T11:49:32.388Z,101400.61
2022-08-12T11:52:02.396Z,101393.97
2022-08-12T11:54:31.461Z,101387.08
2022-08-12T11:57:02.037Z,101383.14
2022-08-12T12:02:21.174Z,101386.59
2022-08-12T12:04:52.325Z,101383.91
2022-08-12T12:08:35.968Z,101383.88
2022-08-12T12:10:13.079Z,101373.70
2022-08-12T12:12:49.563Z,101366.98
2022-08-12T12:15:24.674Z,101367.42
2022-08-12T12:17:55.820Z,101367.81
2022-08-12T12:20:26.137Z,101366.65
2022-08-12T12:22:58.546Z,101367.66
2022-08-12T12:25:59.695Z,101363.55
2022-08-12T12:28:36.650Z,101359.50
2022-08-12T12:31:04.272Z,101360.27
2022-08-12T12:33:57.295Z,101357.52
2022-08-12T12:36:26.442Z,101359.23
2022-08-12T12:39:00.151Z,101357.63
2022-08-12T12:42:42.551Z,101358.89
2022-08-12T12:44:26.002Z,101352.30
2022-08-12T12:47:29.345Z,101355.75
2022-08-12T12:49:54.067Z,101357.64
2022-08-12T12:52:26.973Z,101357.06
2022-08-12T12:54:58.700Z,101359.27
2022-08-12T12:57:59.511Z,101353.48
2022-08-12T13:00:16.578Z,101347.92
2022-08-12T13:02:53.951Z,101343.91
2022-08-12T13:05:28.227Z,101342.00
2022-08-12T13:08:01.141Z,101332.31
2022-08-12T13:10:36.925Z,101337.06
2022-08-12T13:14:09.877Z,101336.03
2022-08-12T13:15:59.137Z,101327.02
2022-08-12T13:18:36.746Z,101325.05
2022-08-12T13:21:06.816Z,101326.45
2022-08-12T13:23:47.957Z,101331.30
2022-08-12T13:26:18.772Z,101336.77
2022-08-12T13:28:53.357Z,101338.24
2022-08-12T13:31:25.211Z,101333.27
2022-08-12T13:34:32.349Z,101336.45
2022-08-12T13:36:43.462Z,101331.86
2022-08-12T13:39:12.651Z,101325.82
2022-08-12T13:41:44.502Z,101325.27
2022-08-12T13:44:13.086Z,101322.92
2022-08-12T13:46:42.307Z,101323.39
2022-08-12T13:49:17.286Z,101322.91
2022-08-12T13:51:54.326Z,101321.09
2022-08-12T13:54:22.000Z,101314.11
2022-08-12T13:56:51.496Z,101316.41
2022-08-12T13:59:24.438Z,101320.15
2022-08-12T14:01:56.704Z,101316.34
2022-08-12T14:04:25.552Z,101311.81
2022-08-12T14:06:55.183Z,101305.70
2022-08-12T14:09:22.978Z,101305.86
2022-08-12T14:11:59.416Z,101305.79
2022-08-12T14:14:31.748Z,101306.41
2022-08-12T14:17:09.925Z,101306.48
2022-08-12T14:20:00.491Z,101300.96
2022-08-12T14:22:30.379Z,101297.27
2022-08-12T14:25:01.408Z,101298.25
2022-08-12T14:28:06.085Z,101302.73
2022-08-12T14:30:28.911Z,101301.25
2022-08-12T14:33:03.134Z,101300.17
2022-08-12T14:35:33.989Z,101304.31
2022-08-12T14:38:16.318Z,101302.42
2022-08-12T14:40:45.023Z,101299.08
2022-08-12T14:43:16.174Z,101302.63
2022-08-12T14:45:49.200Z,101299.02
2022-08-12T14:48:19.306Z,101299.98
2022-08-12T14:51:09.797Z,101297.38
2022-08-12T14:54:52.899Z,101297.89
2022-08-12T14:59:56.529Z,101291.30
2022-08-12T15:02:28.726Z,101290.45
2022-08-12T15:05:00.804Z,101290.84
2022-08-12T15:07:33.568Z,101294.61
2022-08-12T15:10:31.795Z,101289.17
2022-08-12T15:13:07.637Z,101290.16
2022-08-12T15:15:44.167Z,101289.99
2022-08-12T15:18:22.902Z,101289.77
2022-08-12T15:21:01.109Z,101290.22
2022-08-12T15:23:54.969Z,101286.52
2022-08-12T15:26:28.600Z,101279.56
2022-08-12T15:28:58.961Z,101287.17
2022-08-12T15:31:28.292Z,101280.98
2022-08-12T15:34:04.749Z,101285.81
2022-08-12T15:36:53.590Z,101284.77
2022-08-12T15:39:23.491Z,101288.73
2022-08-12T15:41:55.811Z,101286.74
2022-08-12T15:44:38.272Z,101285.52
2022-08-12T15:47:11.768Z,101288.04
2022-08-12T15:49:54.918Z,101285.75
2022-08-12T15:52:29.605Z,101279.67
2022-08-12T15:55:06.239Z,101276.69
2022-08-12T15:57:54.204Z,101273.30
2022-08-12T16:00:32.928Z,101274.38
2022-08-12T16:03:05.621Z,101273.95
2022-08-12T16:06:19.455Z,101269.39
2022-08-12T16:08:29.819Z,101268.67
2022-08-12T16:10:57.676Z,101268.71
2022-08-12T16:13:34.407Z,101262.71
2022-08-12T16:16:22.602Z,101262.61
2022-08-12T16:18:59.635Z,101263.40
2022-08-12T16:21:52.306Z,101263.34
2022-08-12T16:24:18.988Z,101262.07
2022-08-12T16:26:51.536Z,101260.59
2022-08-12T16:29:52.608Z,101261.85
2022-08-12T16:32:24.568Z,101262.98
2022-08-12T16:35:01.309Z,101263.98
2022-08-12T16:37:32.406Z,101259.04
2022-08-12T16:40:06.360Z,101258.30
2022-08-12T16:42:41.947Z,101255.23
2022-08-12T16:45:14.049Z,101253.86
2022-08-12T16:47:58.733Z,101250.15
2022-08-12T16:50:31.179Z,101249.38
2022-08-12T16:53:02.482Z,101248.57
2022-08-12T16:55:42.098Z,101249.68
2022-08-12T16:58:25.595Z,101243.06
2022-08-12T17:00:56.339Z,101244.26
2022-08-12T17:03:29.188Z,101246.27
2022-08-12T17:05:58.913Z,101246.01
2022-08-12T17:08:28.949Z,101244.61
2022-08-12T17:10:57.670Z,101242.02
2022-08-12T17:13:28.397Z,101242.05
2022-08-12T17:16:05.212Z,101237.75
2022-08-12T17:18:42.859Z,101232.98
2022-08-12T17:21:41.766Z,101230.09
2022-08-12T17:24:16.507Z,101230.38
2022-08-12T17:26:49.127Z,101230.28
2022-08-12T17:29:24.367Z,101226.59
2022-08-12T17:32:11.171Z,101228.50
2022-08-12T17:35:00.064Z,101231.99
2022-08-12T17:37:28.639Z,101234.09
2022-08-12T17:40:15.281Z,101231.36
2022-08-12T17:42:48.137Z,101238.42
2022-08-12T17:45:20.104Z,101238.89
2022-08-12T17:48:01.619Z,101243.09
2022-08-12T17:50:36.011Z,101244.80
2022-08-12T17:53:04.806Z,101245.27
2022-08-12T17:55:43.799Z,101244.87
2022-08-12T17:58:37.249Z,101239.23
2022-08-12T18:01:10.926Z,101243.97
2022-08-12T18:04:05.459Z,101245.55
2022-08-12T18:06:28.620Z,101243.52
2022-08-12T18:09:09.389Z,101242.92
2022-08-12T18:12:06.271Z,101242.46
2022-08-12T18:14:38.289Z,101240.42
2022-08-12T18:17:10.130Z,101244.43
2022-08-12T18:20:05.050Z,101245.39
2022-08-12T18:22:30.665Z,101251.77
2022-08-12T18:25:06.681Z,101248.65
2022-08-12T18:27:44.334Z,101250.38
2022-08-12T18:30:20.625Z,101248.15
2022-08-12T18:33:03.921Z,101250.39
2022-08-12T18:35:46.277Z,101249.05
2022-08-12T18:38:25.099Z,101247.39
2022-08-12T18:41:22.164Z,101247.48
2022-08-12T18:44:05.218Z,101247.93
2022-08-12T18:46:54.270Z,101248.72
2022-08-12T18:49:29.616Z,101244.74
2022-08-12T18:52:04.562Z,101247.90
2022-08-12T18:54:36.022Z,101247.42
2022-08-12T18:57:16.342Z,101249.63
2022-08-12T19:00:01.172Z,101246.86
2022-08-12T19:02:39.933Z,101248.20
2022-08-12T19:05:11.956Z,101251.67
2022-08-12T19:07:49.929Z,101248.89
2022-08-12T19:10:30.554Z,101247.02
2022-08-12T19:13:23.144Z,101244.95
2022-08-12T19:15:54.916Z,101246.48
2022-08-12T19:18:29.844Z,101246.58
2022-08-12T19:21:11.752Z,101249.16
2022-08-12T19:24:04.613Z,101257.64
2022-08-12T19:26:34.994Z,101254.92
2022-08-12T19:29:05.786Z,101255.90
2022-08-12T19:31:58.284Z,101255.58
2022-08-12T19:37:27.041Z,101252.77
2022-08-12T19:40:07.733Z,101260.43
2022-08-12T19:42:41.988Z,101256.73
2022-08-12T19:45:14.111Z,101255.88
2022-08-12T19:47:46.040Z,101259.32
2022-08-12T19:50:19.871Z,101259.86
2022-08-12T19:52:53.465Z,101255.26
2022-08-12T19:55:24.468Z,101255.27
2022-08-12T19:58:01.613Z,101255.29
2022-08-12T20:00:34.549Z,101252.52
2022-08-12T20:03:04.544Z,101254.30
2022-08-12T20:06:06.792Z,101257.52
2022-08-12T20:08:31.436Z,101257.22
2022-08-12T20:12:13.459Z,101259.75
2022-08-12T20:14:00.318Z,101263.36
2022-08-12T20:16:51.679Z,101267.10
2022-08-12T20:19:52.862Z,101267.49
2022-08-12T20:22:24.032Z,101263.40
2022-08-12T20:25:01.214Z,101260.08
2022-08-12T20:28:02.914Z,101258.69
2022-08-12T20:30:35.129Z,101258.88
2022-08-12T20:33:17.735Z,101253.05
2022-08-12T20:36:13.143Z,101244.55
2022-08-12T20:38:40.076Z,101248.64
2022-08-12T20:41:17.399Z,101251.48
2022-08-12T20:43:49.821Z,101254.86
2022-08-12T20:46:19.414Z,101260.55
2022-08-12T20:48:54.892Z,101260.23
2022-08-12T20:51:50.930Z,101265.05
2022-08-12T20:54:19.608Z,101272.15
2022-08-12T20:56:48.826Z,101271.62
2022-08-12T20:59:20.198Z,101269.84
2022-08-12T21:01:54.223Z,101270.55
2022-08-12T21:04:43.770Z,101269.32
2022-08-12T21:07:14.353Z,101259.53
2022-08-12T21:09:47.710Z,101256.17
2022-08-12T21:12:27.855Z,101250.13
2022-08-12T21:15:23.464Z,101251.19
2022-08-12T21:18:11.778Z,101251.19
2022-08-12T21:20:52.948Z,101256.17
2022-08-12T21:23:21.678Z,101261.86
2022-08-12T21:26:01.052Z,101263.99
2022-08-12T21:28:31.590Z,101264.88
2022-08-12T21:32:34.950Z,101268.11
2022-08-12T21:34:07.331Z,101267.04
2022-08-12T21:36:40.253Z,101264.73
2022-08-12T21:39:21.430Z,101262.27
2022-08-12T21:41:52.221Z,101259.22
2022-08-12T21:45:43.485Z,101262.77
2022-08-12T21:47:20.150Z,101258.01
2022-08-12T21:50:03.784Z,101258.74
2022-08-12T21:52:42.026Z,101269.46
2022-08-12T21:55:18.423Z,101270.90
2022-08-12T21:57:54.670Z,101271.77
2022-08-12T22:00:36.720Z,101266.61
2022-08-12T22:04:02.753Z,101267.49
2022-08-12T22:06:26.010Z,101273.53
2022-08-12T22:09:04.102Z,101281.52
2022-08-12T22:11:41.864Z,101288.09
2022-08-12T22:14:17.926Z,101281.00
2022-08-12T22:16:52.258Z,101276.19
2022-08-12T22:19:21.466Z,101263.95
2022-08-12T22:21:55.579Z,101261.27
2022-08-12T22:24:26.568Z,101260.53
2022-08-12T22:27:18.141Z,101253.23
2022-08-12T22:30:15.905Z,101250.55
2022-08-12T22:32:50.706Z,101247.71
2022-08-12T22:35:56.365Z,101245.92
2022-08-12T22:38:23.812Z,101242.55
2022-08-12T22:41:02.252Z,101242.17
2022-08-12T22:44:00.034Z,101239.85
2022-08-12T22:46:52.889Z,101238.42
2022-08-12T22:49:49.371Z,101243.23
2022-08-12T22:52:23.215Z,101239.15
2022-08-12T22:55:03.906Z,101240.58
2022-08-12T22:57:54.089Z,101239.88
2022-08-12T23:00:24.301Z,101236.85
2022-08-12T23:03:00.864Z,101237.40
2022-08-12T23:05:56.790Z,101241.84
2022-08-12T23:08:29.708Z,101242.21
2022-08-12T23:11:02.088Z,101246.31
2022-08-12T23:13:47.384Z,101240.65
2022-08-12T23:16:29.508Z,101240.67
2022-08-12T23:19:10.764Z,101245.30
2022-08-12T23:22:06.714Z,101249.38
2022-08-12T23:24:55.541Z,101245.66
2022-08-12T23:27:51.191Z,101244.60
2022-08-12T23:30:31.923Z,101241.05
2022-08-12T23:33:19.798Z,101243.55
2022-08-12T23:35:58.916Z,101245.67
2022-08-12T23:38:33.069Z,101245.50
2022-08-12T23:41:03.522Z,101242.66
2022-08-12T23:43:39.846Z,101238.78
2022-08-12T23:46:11.453Z,101244.65
2022-08-12T23:48:40.026Z,101242.70
2022-08-12T23:51:22.771Z,101239.34
2022-08-12T23:54:00.037Z,101233.69
2022-08-12T23:56:33.900Z,101232.08
2022-08-12T23:59:06.834Z,101233.34
